sensor_id;sensor_type;location;lat;lon;timestamp;temperature;humidity
3334;DHT22;1679;50.392;8.008;2023-07-29T00:02:05;17.90;99.90
3334;DHT22;1679;50.392;8.008;2023-07-29T00:04:31;17.80;99.90
3334;DHT22;1679;50.392;8.008;2023-07-29T00:06:57;17.80;99.90
3334;DHT22;1679;50.392;8.008;2023-07-29T00:09:24;17.80;99.90
3334;DHT22;1679;50.392;8.008;2023-07-29T00:11:50;17.80;99.90
3334;DHT22;1679;50.392;8.008;2023-07-29T00:14:15;17.80;99.90
3334;DHT22;1679;50.392;8.008;2023-07-29T00:16:41;17.70;99.90
3334;DHT22;1679;50.392;8.008;2023-07-29T00:19:07;17.80;99.90
3334;DHT22;1679;50.392;8.008;2023-07-29T00:21:34;17.80;99.90
3334;DHT22;1679;50.392;8.008;2023-07-29T00:24:00;17.80;99.90
3334;DHT22;1679;50.392;8.008;2023-07-29T00:26:26;17.80;99.90
3334;DHT22;1679;50.392;8.008;2023-07-29T00:28:54;17.80;99.90
3334;DHT22;1679;50.392;8.008;2023-07-29T00:31:20;17.80;99.90
3334;DHT22;1679;50.392;8.008;2023-07-29T00:33:45;17.70;99.90
3334;DHT22;1679;50.392;8.008;2023-07-29T00:36:12;17.80;99.90
3334;DHT22;1679;50.392;8.008;2023-07-29T00:38:40;17.80;99.90
3334;DHT22;1679;50.392;8.008;2023-07-29T00:41:05;17.80;99.90
3334;DHT22;1679;50.392;8.008;2023-07-29T00:43:31;17.80;99.90
3334;DHT22;1679;50.392;8.008;2023-07-29T00:45:57;17.80;99.90
3334;DHT22;1679;50.392;8.008;2023-07-29T00:48:29;17.80;99.90
3334;DHT22;1679;50.392;8.008;2023-07-29T00:50:55;17.80;99.90
3334;DHT22;1679;50.392;8.008;2023-07-29T00:53:22;17.90;99.90
3334;DHT22;1679;50.392;8.008;2023-07-29T00:55:48;17.90;99.90
3334;DHT22;1679;50.392;8.008;2023-07-29T00:58:13;17.90;99.90
3334;DHT22;1679;50.392;8.008;2023-07-29T01:00:40;17.80;99.90
3334;DHT22;1679;50.392;8.008;2023-07-29T01:03:05;17.80;99.90
3334;DHT22;1679;50.392;8.008;2023-07-29T01:05:36;17.80;99.90
3334;DHT22;1679;50.392;8.008;2023-07-29T01:08:54;17.70;99.90
3334;DHT22;1679;50.392;8.008;2023-07-29T01:11:09;17.70;99.90
3334;DHT22;1679;50.392;8.008;2023-07-29T01:13:46;17.60;99.90
3334;DHT22;1679;50.392;8.008;2023-07-29T01:16:20;17.50;99.90
3334;DHT22;1679;50.392;8.008;2023-07-29T01:18:47;17.50;99.90
3334;DHT22;1679;50.392;8.008;2023-07-29T01:21:17;17.50;99.90
3334;DHT22;1679;50.392;8.008;2023-07-29T01:23:43;17.50;99.90
3334;DHT22;1679;50.392;8.008;2023-07-29T01:26:09;17.50;99.90
3334;DHT22;1679;50.392;8.008;2023-07-29T01:28:34;17.50;99.90
3334;DHT22;1679;50.392;8.008;2023-07-29T01:31:27;17.40;99.90
3334;DHT22;1679;50.392;8.008;2023-07-29T01:34:23;17.40;99.90
3334;DHT22;1679;50.392;8.008;2023-07-29T01:36:52;17.30;99.90
3334;DHT22;1679;50.392;8.008;2023-07-29T01:39:21;17.30;99.90
3334;DHT22;1679;50.392;8.008;2023-07-29T01:41:48;17.30;99.90
3334;DHT22;1679;50.392;8.008;2023-07-29T01:44:15;17.20;99.90
3334;DHT22;1679;50.392;8.008;2023-07-29T01:46:41;17.20;99.90
3334;DHT22;1679;50.392;8.008;2023-07-29T01:49:09;17.20;99.90
3334;DHT22;1679;50.392;8.008;2023-07-29T01:51:35;17.20;99.90
3334;DHT22;1679;50.392;8.008;2023-07-29T01:54:00;17.20;99.90
3334;DHT22;1679;50.392;8.008;2023-07-29T01:56:26;17.20;99.90
3334;DHT22;1679;50.392;8.008;2023-07-29T01:58:51;17.20;99.90
3334;DHT22;1679;50.392;8.008;2023-07-29T02:01:17;17.20;99.90
3334;DHT22;1679;50.392;8.008;2023-07-29T02:03:44;17.20;99.90
3334;DHT22;1679;50.392;8.008;2023-07-29T02:06:10;17.30;99.90
3334;DHT22;1679;50.392;8.008;2023-07-29T02:08:35;17.30;99.90
3334;DHT22;1679;50.392;8.008;2023-07-29T02:11:01;17.30;99.90
3334;DHT22;1679;50.392;8.008;2023-07-29T02:13:27;17.40;99.90
3334;DHT22;1679;50.392;8.008;2023-07-29T02:15:52;17.50;99.90
3334;DHT22;1679;50.392;8.008;2023-07-29T02:18:18;17.50;99.90
3334;DHT22;1679;50.392;8.008;2023-07-29T02:20:43;17.50;99.90
3334;DHT22;1679;50.392;8.008;2023-07-29T02:23:15;17.50;99.90
3334;DHT22;1679;50.392;8.008;2023-07-29T02:25:41;17.50;99.90
3334;DHT22;1679;50.392;8.008;2023-07-29T02:28:07;17.50;99.90
3334;DHT22;1679;50.392;8.008;2023-07-29T02:30:32;17.60;99.90
3334;DHT22;1679;50.392;8.008;2023-07-29T02:32:58;17.60;99.90
3334;DHT22;1679;50.392;8.008;2023-07-29T02:35:25;17.60;99.90
3334;DHT22;1679;50.392;8.008;2023-07-29T02:37:52;17.60;99.90
3334;DHT22;1679;50.392;8.008;2023-07-29T02:40:17;17.60;99.90
3334;DHT22;1679;50.392;8.008;2023-07-29T02:42:43;17.70;99.90
3334;DHT22;1679;50.392;8.008;2023-07-29T02:45:09;17.70;99.90
3334;DHT22;1679;50.392;8.008;2023-07-29T02:47:37;17.60;99.90
3334;DHT22;1679;50.392;8.008;2023-07-29T02:50:03;17.70;99.90
3334;DHT22;1679;50.392;8.008;2023-07-29T02:52:28;17.60;99.90
3334;DHT22;1679;50.392;8.008;2023-07-29T02:54:55;17.60;99.90
3334;DHT22;1679;50.392;8.008;2023-07-29T02:57:21;17.70;99.90
3334;DHT22;1679;50.392;8.008;2023-07-29T02:59:46;17.70;99.90
3334;DHT22;1679;50.392;8.008;2023-07-29T03:02:12;17.70;99.90
3334;DHT22;1679;50.392;8.008;2023-07-29T03:04:37;17.70;99.90
3334;DHT22;1679;50.392;8.008;2023-07-29T03:07:03;17.70;99.90
3334;DHT22;1679;50.392;8.008;2023-07-29T03:09:29;17.80;99.90
3334;DHT22;1679;50.392;8.008;2023-07-29T03:11:54;17.70;99.90
3334;DHT22;1679;50.392;8.008;2023-07-29T03:14:20;17.80;99.90
3334;DHT22;1679;50.392;8.008;2023-07-29T03:16:46;17.80;99.90
3334;DHT22;1679;50.392;8.008;2023-07-29T03:19:12;17.70;99.90
3334;DHT22;1679;50.392;8.008;2023-07-29T03:21:38;17.80;99.90
3334;DHT22;1679;50.392;8.008;2023-07-29T03:24:03;17.80;99.90
3334;DHT22;1679;50.392;8.008;2023-07-29T03:26:29;17.80;99.90
3334;DHT22;1679;50.392;8.008;2023-07-29T03:28:55;17.80;99.90
3334;DHT22;1679;50.392;8.008;2023-07-29T03:31:21;17.80;99.90
3334;DHT22;1679;50.392;8.008;2023-07-29T03:33:47;17.80;99.90
3334;DHT22;1679;50.392;8.008;2023-07-29T03:36:14;17.80;99.90
3334;DHT22;1679;50.392;8.008;2023-07-29T03:38:39;17.90;99.90
3334;DHT22;1679;50.392;8.008;2023-07-29T03:41:07;17.90;99.90
3334;DHT22;1679;50.392;8.008;2023-07-29T03:43:34;17.90;99.90
3334;DHT22;1679;50.392;8.008;2023-07-29T03:46:00;17.90;99.90
3334;DHT22;1679;50.392;8.008;2023-07-29T03:48:25;18.00;99.90
3334;DHT22;1679;50.392;8.008;2023-07-29T03:50:51;18.00;99.90
3334;DHT22;1679;50.392;8.008;2023-07-29T03:53:16;18.00;99.90
3334;DHT22;1679;50.392;8.008;2023-07-29T03:55:43;18.00;99.90
3334;DHT22;1679;50.392;8.008;2023-07-29T03:58:09;18.00;99.90
3334;DHT22;1679;50.392;8.008;2023-07-29T04:00:34;18.00;99.90
3334;DHT22;1679;50.392;8.008;2023-07-29T04:03:00;18.10;99.90
3334;DHT22;1679;50.392;8.008;2023-07-29T04:05:26;18.00;99.90
3334;DHT22;1679;50.392;8.008;2023-07-29T04:07:53;18.00;99.90
3334;DHT22;1679;50.392;8.008;2023-07-29T04:10:19;18.00;99.90
3334;DHT22;1679;50.392;8.008;2023-07-29T04:12:45;18.00;99.90
3334;DHT22;1679;50.392;8.008;2023-07-29T04:15:11;18.00;99.90
3334;DHT22;1679;50.392;8.008;2023-07-29T04:17:36;18.00;99.90
3334;DHT22;1679;50.392;8.008;2023-07-29T04:20:03;18.00;99.90
3334;DHT22;1679;50.392;8.008;2023-07-29T04:22:29;18.00;99.90
3334;DHT22;1679;50.392;8.008;2023-07-29T04:24:55;17.90;99.90
3334;DHT22;1679;50.392;8.008;2023-07-29T04:27:21;17.90;99.90
3334;DHT22;1679;50.392;8.008;2023-07-29T04:29:47;17.90;99.90
3334;DHT22;1679;50.392;8.008;2023-07-29T04:32:13;17.90;99.90
3334;DHT22;1679;50.392;8.008;2023-07-29T04:34:39;17.80;99.90
3334;DHT22;1679;50.392;8.008;2023-07-29T04:37:04;17.80;99.90
3334;DHT22;1679;50.392;8.008;2023-07-29T04:39:31;17.70;99.90
3334;DHT22;1679;50.392;8.008;2023-07-29T04:41:58;17.70;99.90
3334;DHT22;1679;50.392;8.008;2023-07-29T04:44:24;17.70;99.90
3334;DHT22;1679;50.392;8.008;2023-07-29T04:46:50;17.70;99.90
3334;DHT22;1679;50.392;8.008;2023-07-29T04:49:15;17.80;99.90
3334;DHT22;1679;50.392;8.008;2023-07-29T04:51:42;17.80;99.90
3334;DHT22;1679;50.392;8.008;2023-07-29T04:54:09;17.80;99.90
3334;DHT22;1679;50.392;8.008;2023-07-29T04:56:34;17.80;99.90
3334;DHT22;1679;50.392;8.008;2023-07-29T04:58:59;17.70;99.90
3334;DHT22;1679;50.392;8.008;2023-07-29T05:01:25;17.70;99.90
3334;DHT22;1679;50.392;8.008;2023-07-29T05:03:50;17.70;99.90
3334;DHT22;1679;50.392;8.008;2023-07-29T05:06:18;17.70;99.90
3334;DHT22;1679;50.392;8.008;2023-07-29T05:08:43;17.80;99.90
3334;DHT22;1679;50.392;8.008;2023-07-29T05:11:09;17.90;99.90
3334;DHT22;1679;50.392;8.008;2023-07-29T05:13:35;18.10;99.90
3334;DHT22;1679;50.392;8.008;2023-07-29T05:16:04;18.20;99.90
3334;DHT22;1679;50.392;8.008;2023-07-29T05:18:30;18.40;99.90
3334;DHT22;1679;50.392;8.008;2023-07-29T05:20:55;18.50;99.90
3334;DHT22;1679;50.392;8.008;2023-07-29T05:23:21;18.60;99.90
3334;DHT22;1679;50.392;8.008;2023-07-29T05:25:46;18.60;99.90
3334;DHT22;1679;50.392;8.008;2023-07-29T05:28:12;18.60;99.90
3334;DHT22;1679;50.392;8.008;2023-07-29T05:30:37;18.60;99.90
3334;DHT22;1679;50.392;8.008;2023-07-29T05:33:06;18.60;99.90
3334;DHT22;1679;50.392;8.008;2023-07-29T05:35:35;18.60;99.90
3334;DHT22;1679;50.392;8.008;2023-07-29T05:38:01;18.60;99.90
3334;DHT22;1679;50.392;8.008;2023-07-29T05:40:29;18.60;99.90
3334;DHT22;1679;50.392;8.008;2023-07-29T05:42:54;18.60;99.90
3334;DHT22;1679;50.392;8.008;2023-07-29T05:45:20;18.60;99.90
3334;DHT22;1679;50.392;8.008;2023-07-29T05:47:45;18.60;99.90
3334;DHT22;1679;50.392;8.008;2023-07-29T05:50:12;18.60;99.90
3334;DHT22;1679;50.392;8.008;2023-07-29T05:52:37;18.60;99.90
3334;DHT22;1679;50.392;8.008;2023-07-29T05:55:03;18.60;99.90
3334;DHT22;1679;50.392;8.008;2023-07-29T05:57:29;18.50;99.90
3334;DHT22;1679;50.392;8.008;2023-07-29T05:59:54;18.50;99.90
3334;DHT22;1679;50.392;8.008;2023-07-29T06:02:20;18.40;99.90
3334;DHT22;1679;50.392;8.008;2023-07-29T06:04:45;18.40;99.90
3334;DHT22;1679;50.392;8.008;2023-07-29T06:07:11;18.40;99.90
3334;DHT22;1679;50.392;8.008;2023-07-29T06:09:39;18.40;99.90
3334;DHT22;1679;50.392;8.008;2023-07-29T06:12:05;18.40;99.90
3334;DHT22;1679;50.392;8.008;2023-07-29T06:14:31;18.30;99.90
3334;DHT22;1679;50.392;8.008;2023-07-29T06:16:56;18.30;99.90
3334;DHT22;1679;50.392;8.008;2023-07-29T06:19:22;18.30;99.90
3334;DHT22;1679;50.392;8.008;2023-07-29T06:21:48;18.30;99.90
3334;DHT22;1679;50.392;8.008;2023-07-29T06:24:15;18.30;99.90
3334;DHT22;1679;50.392;8.008;2023-07-29T06:26:42;18.40;99.90
3334;DHT22;1679;50.392;8.008;2023-07-29T06:29:07;18.40;99.90
3334;DHT22;1679;50.392;8.008;2023-07-29T06:31:33;18.50;99.90
3334;DHT22;1679;50.392;8.008;2023-07-29T06:33:59;18.60;99.90
3334;DHT22;1679;50.392;8.008;2023-07-29T06:36:24;18.60;99.90
3334;DHT22;1679;50.392;8.008;2023-07-29T06:38:50;18.70;99.90
3334;DHT22;1679;50.392;8.008;2023-07-29T06:41:16;18.70;99.90
3334;DHT22;1679;50.392;8.008;2023-07-29T06:43:42;18.70;99.90
3334;DHT22;1679;50.392;8.008;2023-07-29T06:46:08;18.80;99.90
3334;DHT22;1679;50.392;8.008;2023-07-29T06:48:34;18.70;99.90
3334;DHT22;1679;50.392;8.008;2023-07-29T06:50:59;18.80;99.90
3334;DHT22;1679;50.392;8.008;2023-07-29T06:53:26;18.80;99.90
3334;DHT22;1679;50.392;8.008;2023-07-29T06:55:52;18.80;99.90
3334;DHT22;1679;50.392;8.008;2023-07-29T06:58:18;18.80;99.90
3334;DHT22;1679;50.392;8.008;2023-07-29T07:00:43;18.90;99.90
3334;DHT22;1679;50.392;8.008;2023-07-29T07:03:09;19.00;99.90
3334;DHT22;1679;50.392;8.008;2023-07-29T07:05:35;19.10;99.90
3334;DHT22;1679;50.392;8.008;2023-07-29T07:08:01;19.10;99.90
3334;DHT22;1679;50.392;8.008;2023-07-29T07:10:27;19.30;99.90
3334;DHT22;1679;50.392;8.008;2023-07-29T07:12:52;19.30;99.90
3334;DHT22;1679;50.392;8.008;2023-07-29T07:15:17;19.40;99.90
3334;DHT22;1679;50.392;8.008;2023-07-29T07:17:43;19.50;99.90
3334;DHT22;1679;50.392;8.008;2023-07-29T07:20:10;19.50;99.90
3334;DHT22;1679;50.392;8.008;2023-07-29T07:22:36;19.50;99.90
3334;DHT22;1679;50.392;8.008;2023-07-29T07:25:02;19.60;99.90
3334;DHT22;1679;50.392;8.008;2023-07-29T07:27:29;19.70;99.90
3334;DHT22;1679;50.392;8.008;2023-07-29T07:29:55;19.80;99.90
3334;DHT22;1679;50.392;8.008;2023-07-29T07:32:20;20.00;99.90
3334;DHT22;1679;50.392;8.008;2023-07-29T07:34:46;20.40;99.90
3334;DHT22;1679;50.392;8.008;2023-07-29T07:37:11;20.90;99.90
3334;DHT22;1679;50.392;8.008;2023-07-29T07:39:37;21.60;99.90
3334;DHT22;1679;50.392;8.008;2023-07-29T07:42:03;22.40;99.90
3334;DHT22;1679;50.392;8.008;2023-07-29T07:44:29;23.10;99.90
3334;DHT22;1679;50.392;8.008;2023-07-29T07:46:54;23.10;99.90
3334;DHT22;1679;50.392;8.008;2023-07-29T07:49:21;22.80;99.90
3334;DHT22;1679;50.392;8.008;2023-07-29T07:51:47;22.40;99.90
3334;DHT22;1679;50.392;8.008;2023-07-29T07:54:14;22.20;99.90
3334;DHT22;1679;50.392;8.008;2023-07-29T07:56:39;22.20;99.90
3334;DHT22;1679;50.392;8.008;2023-07-29T07:59:05;22.40;99.90
3334;DHT22;1679;50.392;8.008;2023-07-29T08:01:37;22.40;99.90
3334;DHT22;1679;50.392;8.008;2023-07-29T08:04:03;22.60;99.90
3334;DHT22;1679;50.392;8.008;2023-07-29T08:06:29;22.50;99.90
3334;DHT22;1679;50.392;8.008;2023-07-29T08:08:55;22.30;99.90
3334;DHT22;1679;50.392;8.008;2023-07-29T08:11:21;22.10;99.90
3334;DHT22;1679;50.392;8.008;2023-07-29T08:13:46;22.10;99.90
3334;DHT22;1679;50.392;8.008;2023-07-29T08:16:12;22.00;99.90
3334;DHT22;1679;50.392;8.008;2023-07-29T08:18:38;22.10;99.90
3334;DHT22;1679;50.392;8.008;2023-07-29T08:21:07;22.70;99.90
3334;DHT22;1679;50.392;8.008;2023-07-29T08:23:35;23.50;99.90
3334;DHT22;1679;50.392;8.008;2023-07-29T08:26:03;23.50;99.90
3334;DHT22;1679;50.392;8.008;2023-07-29T08:28:35;23.60;99.90
3334;DHT22;1679;50.392;8.008;2023-07-29T08:31:01;24.20;99.90
3334;DHT22;1679;50.392;8.008;2023-07-29T08:33:27;24.80;99.90
3334;DHT22;1679;50.392;8.008;2023-07-29T08:35:53;25.40;99.90
3334;DHT22;1679;50.392;8.008;2023-07-29T08:38:19;25.30;99.90
3334;DHT22;1679;50.392;8.008;2023-07-29T08:40:53;25.00;99.90
3334;DHT22;1679;50.392;8.008;2023-07-29T08:43:28;24.80;99.90
3334;DHT22;1679;50.392;8.008;2023-07-29T08:45:55;24.50;99.90
3334;DHT22;1679;50.392;8.008;2023-07-29T08:48:38;24.50;99.90
3334;DHT22;1679;50.392;8.008;2023-07-29T08:51:05;24.60;99.90
3334;DHT22;1679;50.392;8.008;2023-07-29T08:53:33;24.40;99.90
3334;DHT22;1679;50.392;8.008;2023-07-29T08:55:59;24.20;99.90
3334;DHT22;1679;50.392;8.008;2023-07-29T08:58:24;24.00;99.90
3334;DHT22;1679;50.392;8.008;2023-07-29T09:00:50;23.70;99.90
3334;DHT22;1679;50.392;8.008;2023-07-29T09:03:16;23.50;99.90
3334;DHT22;1679;50.392;8.008;2023-07-29T09:05:41;23.20;99.90
3334;DHT22;1679;50.392;8.008;2023-07-29T09:08:07;23.10;99.90
3334;DHT22;1679;50.392;8.008;2023-07-29T09:10:36;23.10;99.90
3334;DHT22;1679;50.392;8.008;2023-07-29T09:13:05;23.00;99.90
3334;DHT22;1679;50.392;8.008;2023-07-29T09:15:33;23.00;99.90
3334;DHT22;1679;50.392;8.008;2023-07-29T09:18:11;22.80;99.90
3334;DHT22;1679;50.392;8.008;2023-07-29T09:20:37;22.70;99.90
3334;DHT22;1679;50.392;8.008;2023-07-29T09:23:02;22.50;99.90
3334;DHT22;1679;50.392;8.008;2023-07-29T09:25:29;22.50;99.90
3334;DHT22;1679;50.392;8.008;2023-07-29T09:28:01;22.50;99.90
3334;DHT22;1679;50.392;8.008;2023-07-29T09:30:27;22.40;99.90
3334;DHT22;1679;50.392;8.008;2023-07-29T09:32:57;22.40;99.90
3334;DHT22;1679;50.392;8.008;2023-07-29T09:35:27;22.40;99.90
3334;DHT22;1679;50.392;8.008;2023-07-29T09:37:53;22.50;99.90
3334;DHT22;1679;50.392;8.008;2023-07-29T09:40:19;22.60;99.90
3334;DHT22;1679;50.392;8.008;2023-07-29T09:42:49;22.60;99.90
3334;DHT22;1679;50.392;8.008;2023-07-29T09:45:26;22.50;99.90
3334;DHT22;1679;50.392;8.008;2023-07-29T09:47:53;22.50;99.90
3334;DHT22;1679;50.392;8.008;2023-07-29T09:50:24;22.40;99.90
3334;DHT22;1679;50.392;8.008;2023-07-29T09:52:51;22.40;99.90
3334;DHT22;1679;50.392;8.008;2023-07-29T09:55:26;22.50;99.90
3334;DHT22;1679;50.392;8.008;2023-07-29T09:57:59;22.40;99.90
3334;DHT22;1679;50.392;8.008;2023-07-29T10:00:30;22.70;99.90
3334;DHT22;1679;50.392;8.008;2023-07-29T10:02:57;23.30;99.90
3334;DHT22;1679;50.392;8.008;2023-07-29T10:05:25;23.90;99.90
3334;DHT22;1679;50.392;8.008;2023-07-29T10:07:51;24.40;99.90
3334;DHT22;1679;50.392;8.008;2023-07-29T10:10:17;24.40;99.90
3334;DHT22;1679;50.392;8.008;2023-07-29T10:12:43;24.30;99.90
3334;DHT22;1679;50.392;8.008;2023-07-29T10:15:09;23.90;99.90
3334;DHT22;1679;50.392;8.008;2023-07-29T10:17:36;23.40;99.90
3334;DHT22;1679;50.392;8.008;2023-07-29T10:20:07;23.10;99.90
3334;DHT22;1679;50.392;8.008;2023-07-29T10:22:40;22.80;99.90
3334;DHT22;1679;50.392;8.008;2023-07-29T10:25:16;22.50;99.90
3334;DHT22;1679;50.392;8.008;2023-07-29T10:27:47;22.10;99.90
3334;DHT22;1679;50.392;8.008;2023-07-29T10:30:13;21.90;99.90
3334;DHT22;1679;50.392;8.008;2023-07-29T10:32:42;21.70;99.90
3334;DHT22;1679;50.392;8.008;2023-07-29T10:35:12;22.00;99.90
3334;DHT22;1679;50.392;8.008;2023-07-29T10:37:39;22.40;99.90
3334;DHT22;1679;50.392;8.008;2023-07-29T10:40:09;22.70;99.90
3334;DHT22;1679;50.392;8.008;2023-07-29T10:42:36;23.20;99.90
3334;DHT22;1679;50.392;8.008;2023-07-29T10:45:20;23.50;99.90
3334;DHT22;1679;50.392;8.008;2023-07-29T10:47:47;23.60;99.90
3334;DHT22;1679;50.392;8.008;2023-07-29T10:50:20;23.60;99.90
3334;DHT22;1679;50.392;8.008;2023-07-29T10:52:51;23.50;99.90
3334;DHT22;1679;50.392;8.008;2023-07-29T10:55:26;23.50;99.90
3334;DHT22;1679;50.392;8.008;2023-07-29T10:57:52;23.40;99.90
3334;DHT22;1679;50.392;8.008;2023-07-29T11:00:30;23.30;99.90
3334;DHT22;1679;50.392;8.008;2023-07-29T11:03:01;23.30;99.90
3334;DHT22;1679;50.392;8.008;2023-07-29T11:05:45;23.30;99.90
3334;DHT22;1679;50.392;8.008;2023-07-29T11:08:29;23.40;99.90
3334;DHT22;1679;50.392;8.008;2023-07-29T11:11:03;23.60;99.90
3334;DHT22;1679;50.392;8.008;2023-07-29T11:13:30;23.80;99.90
3334;DHT22;1679;50.392;8.008;2023-07-29T11:15:58;24.00;99.90
3334;DHT22;1679;50.392;8.008;2023-07-29T11:18:34;24.20;99.90
3334;DHT22;1679;50.392;8.008;2023-07-29T11:21:01;24.20;99.90
3334;DHT22;1679;50.392;8.008;2023-07-29T11:23:34;24.30;99.90
3334;DHT22;1679;50.392;8.008;2023-07-29T11:26:01;24.10;99.90
3334;DHT22;1679;50.392;8.008;2023-07-29T11:28:27;24.10;99.90
3334;DHT22;1679;50.392;8.008;2023-07-29T11:30:54;24.10;99.90
3334;DHT22;1679;50.392;8.008;2023-07-29T11:33:21;24.10;99.90
3334;DHT22;1679;50.392;8.008;2023-07-29T11:35:50;24.00;99.90
3334;DHT22;1679;50.392;8.008;2023-07-29T11:38:19;23.90;99.90
3334;DHT22;1679;50.392;8.008;2023-07-29T11:40:59;23.80;99.90
3334;DHT22;1679;50.392;8.008;2023-07-29T11:43:26;23.80;99.90
3334;DHT22;1679;50.392;8.008;2023-07-29T11:45:53;23.70;99.90
3334;DHT22;1679;50.392;8.008;2023-07-29T11:48:31;23.80;99.90
3334;DHT22;1679;50.392;8.008;2023-07-29T11:50:57;23.70;99.90
3334;DHT22;1679;50.392;8.008;2023-07-29T11:53:27;23.80;99.90
3334;DHT22;1679;50.392;8.008;2023-07-29T11:55:53;24.00;99.90
3334;DHT22;1679;50.392;8.008;2023-07-29T11:58:20;24.30;99.90
3334;DHT22;1679;50.392;8.008;2023-07-29T12:00:46;24.60;99.90
3334;DHT22;1679;50.392;8.008;2023-07-29T12:03:12;24.70;99.90
3334;DHT22;1679;50.392;8.008;2023-07-29T12:05:38;24.70;99.90
3334;DHT22;1679;50.392;8.008;2023-07-29T12:08:05;24.70;99.90
3334;DHT22;1679;50.392;8.008;2023-07-29T12:10:31;24.80;99.90
3334;DHT22;1679;50.392;8.008;2023-07-29T12:12:57;24.90;99.90
3334;DHT22;1679;50.392;8.008;2023-07-29T12:15:25;24.90;99.90
3334;DHT22;1679;50.392;8.008;2023-07-29T12:17:53;25.00;99.90
3334;DHT22;1679;50.392;8.008;2023-07-29T12:20:20;25.20;99.90
3334;DHT22;1679;50.392;8.008;2023-07-29T12:22:52;25.30;99.90
3334;DHT22;1679;50.392;8.008;2023-07-29T12:25:21;25.50;99.90
3334;DHT22;1679;50.392;8.008;2023-07-29T12:27:49;25.40;99.90
3334;DHT22;1679;50.392;8.008;2023-07-29T12:30:14;24.80;99.90
3334;DHT22;1679;50.392;8.008;2023-07-29T12:32:47;24.50;99.90
3334;DHT22;1679;50.392;8.008;2023-07-29T12:35:15;24.40;99.90
3334;DHT22;1679;50.392;8.008;2023-07-29T12:37:41;24.30;99.90
3334;DHT22;1679;50.392;8.008;2023-07-29T12:40:25;24.30;99.90
3334;DHT22;1679;50.392;8.008;2023-07-29T12:42:51;24.20;99.90
3334;DHT22;1679;50.392;8.008;2023-07-29T12:45:18;24.00;99.90
3334;DHT22;1679;50.392;8.008;2023-07-29T12:47:44;23.90;99.90
3334;DHT22;1679;50.392;8.008;2023-07-29T12:50:10;23.90;99.90
3334;DHT22;1679;50.392;8.008;2023-07-29T12:52:35;23.80;99.90
3334;DHT22;1679;50.392;8.008;2023-07-29T12:55:02;23.60;99.90
3334;DHT22;1679;50.392;8.008;2023-07-29T12:57:28;23.50;99.90
3334;DHT22;1679;50.392;8.008;2023-07-29T12:59:53;23.40;99.90
3334;DHT22;1679;50.392;8.008;2023-07-29T13:02:19;23.40;99.90
3334;DHT22;1679;50.392;8.008;2023-07-29T13:04:44;23.50;99.90
3334;DHT22;1679;50.392;8.008;2023-07-29T13:07:11;23.60;99.90
3334;DHT22;1679;50.392;8.008;2023-07-29T13:09:37;23.90;99.90
3334;DHT22;1679;50.392;8.008;2023-07-29T13:12:03;24.20;99.90
3334;DHT22;1679;50.392;8.008;2023-07-29T13:14:28;24.50;99.90
3334;DHT22;1679;50.392;8.008;2023-07-29T13:16:54;24.50;99.90
3334;DHT22;1679;50.392;8.008;2023-07-29T13:19:19;24.50;99.90
3334;DHT22;1679;50.392;8.008;2023-07-29T13:21:45;24.50;99.90
3334;DHT22;1679;50.392;8.008;2023-07-29T13:24:12;24.30;99.90
3334;DHT22;1679;50.392;8.008;2023-07-29T13:26:38;24.30;99.90
3334;DHT22;1679;50.392;8.008;2023-07-29T13:29:04;24.50;99.90
3334;DHT22;1679;50.392;8.008;2023-07-29T13:31:31;24.50;99.90
3334;DHT22;1679;50.392;8.008;2023-07-29T13:33:56;24.00;99.90
3334;DHT22;1679;50.392;8.008;2023-07-29T13:36:22;23.60;99.90
3334;DHT22;1679;50.392;8.008;2023-07-29T13:38:47;23.40;99.90
3334;DHT22;1679;50.392;8.008;2023-07-29T13:41:13;23.20;99.90
3334;DHT22;1679;50.392;8.008;2023-07-29T13:43:40;23.10;99.90
3334;DHT22;1679;50.392;8.008;2023-07-29T13:46:05;23.00;99.90
3334;DHT22;1679;50.392;8.008;2023-07-29T13:48:31;23.10;99.90
3334;DHT22;1679;50.392;8.008;2023-07-29T13:50:58;23.20;99.90
3334;DHT22;1679;50.392;8.008;2023-07-29T13:53:25;23.30;99.90
3334;DHT22;1679;50.392;8.008;2023-07-29T13:55:51;23.30;99.90
3334;DHT22;1679;50.392;8.008;2023-07-29T13:58:16;23.20;99.90
3334;DHT22;1679;50.392;8.008;2023-07-29T14:00:42;23.10;99.90
3334;DHT22;1679;50.392;8.008;2023-07-29T14:03:08;23.10;99.90
3334;DHT22;1679;50.392;8.008;2023-07-29T14:05:33;23.00;99.90
3334;DHT22;1679;50.392;8.008;2023-07-29T14:07:59;22.90;99.90
3334;DHT22;1679;50.392;8.008;2023-07-29T14:10:24;22.90;99.90
3334;DHT22;1679;50.392;8.008;2023-07-29T14:12:51;22.80;99.90
3334;DHT22;1679;50.392;8.008;2023-07-29T14:15:17;22.80;99.90
3334;DHT22;1679;50.392;8.008;2023-07-29T14:17:43;22.80;99.90
3334;DHT22;1679;50.392;8.008;2023-07-29T14:20:09;22.70;99.90
3334;DHT22;1679;50.392;8.008;2023-07-29T14:22:36;22.70;99.90
3334;DHT22;1679;50.392;8.008;2023-07-29T14:25:03;22.60;99.90
3334;DHT22;1679;50.392;8.008;2023-07-29T14:27:29;22.50;99.90
3334;DHT22;1679;50.392;8.008;2023-07-29T14:29:56;22.50;99.90
3334;DHT22;1679;50.392;8.008;2023-07-29T14:32:22;22.60;99.90
3334;DHT22;1679;50.392;8.008;2023-07-29T14:34:48;22.60;99.90
3334;DHT22;1679;50.392;8.008;2023-07-29T14:37:14;22.60;99.90
3334;DHT22;1679;50.392;8.008;2023-07-29T14:39:40;22.70;99.90
3334;DHT22;1679;50.392;8.008;2023-07-29T14:42:05;22.70;99.90
3334;DHT22;1679;50.392;8.008;2023-07-29T14:44:31;22.70;99.90
3334;DHT22;1679;50.392;8.008;2023-07-29T14:46:57;22.70;99.90
3334;DHT22;1679;50.392;8.008;2023-07-29T14:49:24;22.70;99.90
3334;DHT22;1679;50.392;8.008;2023-07-29T14:51:50;22.80;99.90
3334;DHT22;1679;50.392;8.008;2023-07-29T14:54:15;23.00;99.90
3334;DHT22;1679;50.392;8.008;2023-07-29T14:56:41;23.20;99.90
3334;DHT22;1679;50.392;8.008;2023-07-29T14:59:07;23.40;99.90
3334;DHT22;1679;50.392;8.008;2023-07-29T15:01:32;23.60;99.90
3334;DHT22;1679;50.392;8.008;2023-07-29T15:03:59;23.80;99.90
3334;DHT22;1679;50.392;8.008;2023-07-29T15:06:25;23.90;99.90
3334;DHT22;1679;50.392;8.008;2023-07-29T15:08:52;24.00;99.90
3334;DHT22;1679;50.392;8.008;2023-07-29T15:11:19;24.10;99.90
3334;DHT22;1679;50.392;8.008;2023-07-29T15:13:44;24.40;99.90
3334;DHT22;1679;50.392;8.008;2023-07-29T15:16:10;24.60;99.90
3334;DHT22;1679;50.392;8.008;2023-07-29T15:18:35;24.70;99.90
3334;DHT22;1679;50.392;8.008;2023-07-29T15:21:01;24.70;99.90
3334;DHT22;1679;50.392;8.008;2023-07-29T15:23:28;24.70;99.90
3334;DHT22;1679;50.392;8.008;2023-07-29T15:25:53;24.80;99.90
3334;DHT22;1679;50.392;8.008;2023-07-29T15:28:19;24.80;99.90
3334;DHT22;1679;50.392;8.008;2023-07-29T15:30:45;24.90;99.90
3334;DHT22;1679;50.392;8.008;2023-07-29T15:33:12;25.00;99.90
3334;DHT22;1679;50.392;8.008;2023-07-29T15:35:38;24.90;99.90
3334;DHT22;1679;50.392;8.008;2023-07-29T15:38:06;24.80;99.90
3334;DHT22;1679;50.392;8.008;2023-07-29T15:40:32;24.60;99.90
3334;DHT22;1679;50.392;8.008;2023-07-29T15:42:58;24.10;99.90
3334;DHT22;1679;50.392;8.008;2023-07-29T15:45:23;23.60;99.90
3334;DHT22;1679;50.392;8.008;2023-07-29T15:47:49;23.40;99.90
3334;DHT22;1679;50.392;8.008;2023-07-29T15:50:15;23.30;99.90
3334;DHT22;1679;50.392;8.008;2023-07-29T15:52:41;23.20;99.90
3334;DHT22;1679;50.392;8.008;2023-07-29T15:55:08;23.10;99.90
3334;DHT22;1679;50.392;8.008;2023-07-29T15:57:33;23.20;99.90
3334;DHT22;1679;50.392;8.008;2023-07-29T15:59:59;23.20;99.90
3334;DHT22;1679;50.392;8.008;2023-07-29T16:02:25;23.10;99.90